AUA2990 LOWL-EDDW
Flight info
| Callsign | AUA2990 |
|---|---|
| Flight time | 1h 4m |
| Altitude | 36000 |
| Route | PETEN DCT TIVDA DCT ARMUT DCT TIPAM DCT ABERU DCT URONA DCT SODRO DCT BIRKA DCT VERED VERED3P |
| Aircraft | A320/M-SDE3FGHIRWY/LB1 |
Departure
| Time | 2026-04-16 02:35 |
|---|---|
| Airport | Linz-Hörsching Airport (LOWL) |
Arrival
| Time | 2026-04-16 03:39 |
|---|---|
| Airport | Bremen Airport (EDDW) |
| Time | Latitude | Longitude | Altitude | Speed | Heading |
|---|---|---|---|---|---|
| 2026-04-16 02:18 | 48.23837 | 14.19015 | 986 ft | 0 kts | 87° |
| 2026-04-16 02:21 | 48.23837 | 14.19006 | 992 ft | 4 kts | 89° |
| 2026-04-16 02:21 | 48.23840 | 14.18967 | 993 ft | 4 kts | 118° |
| 2026-04-16 02:22 | 48.23857 | 14.18942 | 989 ft | 3 kts | 174° |
| 2026-04-16 02:22 | 48.23865 | 14.18941 | 988 ft | 0 kts | 177° |
| 2026-04-16 02:26 | 48.23859 | 14.18942 | 986 ft | 3 kts | 178° |
| 2026-04-16 02:27 | 48.23843 | 14.18943 | 989 ft | 3 kts | 178° |
| 2026-04-16 02:27 | 48.23806 | 14.18945 | 991 ft | 8 kts | 178° |
| 2026-04-16 02:27 | 48.23755 | 14.18963 | 989 ft | 7 kts | 135° |
| 2026-04-16 02:27 | 48.23749 | 14.19024 | 986 ft | 5 kts | 88° |
| 2026-04-16 02:28 | 48.23751 | 14.19080 | 986 ft | 6 kts | 88° |
| 2026-04-16 02:28 | 48.23753 | 14.19153 | 993 ft | 8 kts | 87° |
| 2026-04-16 02:28 | 48.23756 | 14.19255 | 992 ft | 12 kts | 87° |
| 2026-04-16 02:28 | 48.23761 | 14.19385 | 986 ft | 12 kts | 87° |
| 2026-04-16 02:29 | 48.23765 | 14.19501 | 986 ft | 10 kts | 87° |
| 2026-04-16 02:29 | 48.23758 | 14.19589 | 986 ft | 7 kts | 133° |
| 2026-04-16 02:29 | 48.23714 | 14.19619 | 987 ft | 7 kts | 160° |
| 2026-04-16 02:29 | 48.23675 | 14.19640 | 986 ft | 5 kts | 159° |
| 2026-04-16 02:30 | 48.23644 | 14.19658 | 990 ft | 5 kts | 159° |
| 2026-04-16 02:30 | 48.23600 | 14.19684 | 988 ft | 9 kts | 158° |
| 2026-04-16 02:30 | 48.23531 | 14.19724 | 990 ft | 11 kts | 158° |
| 2026-04-16 02:30 | 48.23461 | 14.19766 | 990 ft | 10 kts | 158° |
| 2026-04-16 02:31 | 48.23393 | 14.19806 | 987 ft | 10 kts | 155° |
| 2026-04-16 02:31 | 48.23361 | 14.19889 | 986 ft | 9 kts | 91° |
| 2026-04-16 02:31 | 48.23364 | 14.19989 | 987 ft | 12 kts | 87° |
| 2026-04-16 02:31 | 48.23370 | 14.20146 | 983 ft | 17 kts | 87° |
| 2026-04-16 02:32 | 48.23377 | 14.20333 | 981 ft | 19 kts | 86° |
| 2026-04-16 02:32 | 48.23383 | 14.20533 | 981 ft | 17 kts | 92° |
| 2026-04-16 02:32 | 48.23374 | 14.20614 | 986 ft | 5 kts | 104° |
| 2026-04-16 02:32 | 48.23379 | 14.20635 | 981 ft | 1 kts | 2° |
| 2026-04-16 02:33 | 48.23388 | 14.20605 | 987 ft | 6 kts | 290° |
| 2026-04-16 02:33 | 48.23387 | 14.20553 | 981 ft | 5 kts | 262° |
| 2026-04-16 02:33 | 48.23382 | 14.20492 | 981 ft | 0 kts | 266° |
| 2026-04-16 02:34 | 48.23377 | 14.20359 | 981 ft | 43 kts | 266° |
| 2026-04-16 02:34 | 48.23350 | 14.19538 | 986 ft | 111 kts | 267° |
| 2026-04-16 02:35 | 48.23310 | 14.18100 | 1006 ft | 161 kts | 270° |
| 2026-04-16 02:35 | 48.23268 | 14.16465 | 1730 ft | 153 kts | 268° |
| 2026-04-16 02:35 | 48.23210 | 14.14849 | 2399 ft | 159 kts | 266° |
| 2026-04-16 02:35 | 48.23144 | 14.13083 | 2783 ft | 181 kts | 266° |
| 2026-04-16 02:36 | 48.23080 | 14.11083 | 3087 ft | 203 kts | 270° |
| 2026-04-16 02:36 | 48.23544 | 14.08988 | 3435 ft | 229 kts | 310° |
| 2026-04-16 02:36 | 48.24955 | 14.07702 | 3869 ft | 254 kts | 349° |
| 2026-04-16 02:36 | 48.26741 | 14.07939 | 4619 ft | 266 kts | 17° |
| 2026-04-16 02:37 | 48.28459 | 14.09036 | 5550 ft | 271 kts | 25° |
| 2026-04-16 02:37 | 48.29027 | 14.09470 | 5870 ft | 272 kts | 26° |
| 2026-04-16 02:37 | 48.31294 | 14.11228 | 7093 ft | 277 kts | 25° |
| 2026-04-16 02:37 | 48.33626 | 14.12864 | 8263 ft | 281 kts | 21° |
| 2026-04-16 02:38 | 48.35445 | 14.13997 | 9138 ft | 285 kts | 19° |
| 2026-04-16 02:38 | 48.37311 | 14.15070 | 10023 ft | 289 kts | 18° |
| 2026-04-16 02:38 | 48.39323 | 14.15908 | 10477 ft | 306 kts | 4° |
| 2026-04-16 02:38 | 48.41503 | 14.15709 | 10779 ft | 324 kts | 343° |
| 2026-04-16 02:39 | 48.43577 | 14.14328 | 11385 ft | 330 kts | 324° |
| 2026-04-16 02:39 | 48.45311 | 14.12058 | 12125 ft | 333 kts | 315° |
| 2026-04-16 02:39 | 48.46989 | 14.09627 | 12905 ft | 337 kts | 315° |
| 2026-04-16 02:39 | 48.48693 | 14.07160 | 13668 ft | 341 kts | 315° |
| 2026-04-16 02:40 | 48.50414 | 14.04665 | 14352 ft | 345 kts | 315° |
| 2026-04-16 02:40 | 48.52155 | 14.02137 | 15014 ft | 349 kts | 315° |
| 2026-04-16 02:40 | 48.53911 | 13.99593 | 15684 ft | 352 kts | 315° |
| 2026-04-16 02:40 | 48.55688 | 13.97014 | 16356 ft | 356 kts | 315° |
| 2026-04-16 02:41 | 48.57477 | 13.94411 | 17034 ft | 359 kts | 314° |
| 2026-04-16 02:41 | 48.59279 | 13.91781 | 17704 ft | 362 kts | 314° |
| 2026-04-16 02:41 | 48.61096 | 13.89124 | 18359 ft | 365 kts | 314° |
| 2026-04-16 02:41 | 48.62931 | 13.86440 | 18926 ft | 368 kts | 314° |
| 2026-04-16 02:42 | 48.64779 | 13.83739 | 19501 ft | 371 kts | 314° |
| 2026-04-16 02:42 | 48.66644 | 13.81013 | 20076 ft | 374 kts | 314° |
| 2026-04-16 02:42 | 48.68519 | 13.78263 | 20630 ft | 376 kts | 314° |
| 2026-04-16 02:42 | 48.70405 | 13.75495 | 21166 ft | 379 kts | 314° |
| 2026-04-16 02:43 | 48.72301 | 13.72713 | 21709 ft | 382 kts | 314° |
| 2026-04-16 02:43 | 48.74216 | 13.69901 | 22253 ft | 384 kts | 314° |
| 2026-04-16 02:43 | 48.76136 | 13.67075 | 22775 ft | 387 kts | 314° |
| 2026-04-16 02:43 | 48.78073 | 13.64220 | 23296 ft | 390 kts | 314° |
| 2026-04-16 02:44 | 48.80024 | 13.61341 | 23797 ft | 392 kts | 314° |
| 2026-04-16 02:44 | 48.81984 | 13.58443 | 24213 ft | 395 kts | 314° |
| 2026-04-16 02:44 | 48.83954 | 13.55521 | 24642 ft | 397 kts | 314° |
| 2026-04-16 02:44 | 48.85934 | 13.52585 | 25057 ft | 399 kts | 314° |
| 2026-04-16 02:45 | 48.87934 | 13.49624 | 25472 ft | 401 kts | 314° |
| 2026-04-16 02:45 | 48.89932 | 13.46657 | 25873 ft | 404 kts | 314° |
| 2026-04-16 02:45 | 48.91970 | 13.43627 | 26290 ft | 406 kts | 314° |
| 2026-04-16 02:45 | 48.93995 | 13.40612 | 26691 ft | 408 kts | 314° |
| 2026-04-16 02:46 | 48.96000 | 13.37623 | 27080 ft | 410 kts | 314° |
| 2026-04-16 02:46 | 48.98045 | 13.34575 | 27470 ft | 412 kts | 314° |
| 2026-04-16 02:46 | 49.00126 | 13.31474 | 27862 ft | 415 kts | 314° |
| 2026-04-16 02:46 | 49.02191 | 13.28393 | 28249 ft | 417 kts | 314° |
| 2026-04-16 02:47 | 49.03563 | 13.26342 | 28503 ft | 418 kts | 314° |
| 2026-04-16 02:47 | 49.06349 | 13.22163 | 29005 ft | 422 kts | 314° |
| 2026-04-16 02:47 | 49.07734 | 13.20083 | 29236 ft | 423 kts | 314° |
| 2026-04-16 02:47 | 49.09840 | 13.16916 | 29580 ft | 425 kts | 314° |
| 2026-04-16 02:48 | 49.11948 | 13.13745 | 29908 ft | 427 kts | 314° |
| 2026-04-16 02:48 | 49.14074 | 13.10545 | 30238 ft | 430 kts | 313° |
| 2026-04-16 02:48 | 49.16207 | 13.07330 | 30521 ft | 431 kts | 313° |
| 2026-04-16 02:48 | 49.18344 | 13.04107 | 30808 ft | 433 kts | 313° |
| 2026-04-16 02:49 | 49.20491 | 13.00858 | 31072 ft | 435 kts | 313° |
| 2026-04-16 02:49 | 49.22643 | 12.97598 | 31332 ft | 437 kts | 313° |
| 2026-04-16 02:49 | 49.24809 | 12.94315 | 31633 ft | 438 kts | 313° |
| 2026-04-16 02:49 | 49.26974 | 12.91033 | 32019 ft | 436 kts | 313° |
| 2026-04-16 02:50 | 49.29122 | 12.87774 | 32408 ft | 435 kts | 313° |
| 2026-04-16 02:50 | 49.31296 | 12.84467 | 32791 ft | 434 kts | 313° |
| 2026-04-16 02:50 | 49.33443 | 12.81196 | 33168 ft | 433 kts | 313° |
| 2026-04-16 02:50 | 49.35575 | 12.77943 | 33550 ft | 432 kts | 312° |
| 2026-04-16 02:51 | 49.37707 | 12.74688 | 33915 ft | 432 kts | 312° |
| 2026-04-16 02:51 | 49.39832 | 12.71441 | 34279 ft | 431 kts | 312° |
| 2026-04-16 02:51 | 49.41956 | 12.68196 | 34604 ft | 431 kts | 312° |
| 2026-04-16 02:51 | 49.44145 | 12.65056 | 34917 ft | 432 kts | 318° |
| 2026-04-16 02:52 | 49.46550 | 12.62259 | 35210 ft | 433 kts | 320° |
| 2026-04-16 02:52 | 49.48958 | 12.59480 | 35513 ft | 432 kts | 319° |
| 2026-04-16 02:52 | 49.51352 | 12.56706 | 35794 ft | 432 kts | 319° |
| 2026-04-16 02:52 | 49.53752 | 12.53920 | 36068 ft | 431 kts | 319° |
| 2026-04-16 02:53 | 49.56150 | 12.51136 | 36183 ft | 431 kts | 319° |
| 2026-04-16 02:53 | 49.58538 | 12.48363 | 36207 ft | 429 kts | 319° |
| 2026-04-16 02:53 | 49.63295 | 12.42831 | 36203 ft | 428 kts | 319° |
| 2026-04-16 02:54 | 49.68038 | 12.37289 | 36200 ft | 428 kts | 319° |
| 2026-04-16 02:54 | 49.72924 | 12.32019 | 36198 ft | 432 kts | 328° |
| 2026-04-16 02:55 | 49.78463 | 12.28256 | 36196 ft | 435 kts | 332° |
| 2026-04-16 02:55 | 49.84022 | 12.24577 | 36195 ft | 435 kts | 332° |
| 2026-04-16 02:56 | 49.89585 | 12.20901 | 36193 ft | 435 kts | 332° |
| 2026-04-16 02:56 | 49.94254 | 12.17817 | 36193 ft | 435 kts | 332° |
| 2026-04-16 02:57 | 50.00463 | 12.13697 | 36197 ft | 435 kts | 332° |
| 2026-04-16 02:57 | 50.06033 | 12.09980 | 36198 ft | 435 kts | 332° |
| 2026-04-16 02:58 | 50.11627 | 12.06237 | 36197 ft | 435 kts | 332° |
| 2026-04-16 02:58 | 50.17188 | 12.02506 | 36196 ft | 435 kts | 332° |
| 2026-04-16 02:59 | 50.22753 | 11.98764 | 36192 ft | 435 kts | 331° |
| 2026-04-16 02:59 | 50.28311 | 11.95015 | 36191 ft | 435 kts | 331° |
| 2026-04-16 03:00 | 50.33881 | 11.91263 | 36195 ft | 435 kts | 331° |
| 2026-04-16 03:00 | 50.39443 | 11.87511 | 36191 ft | 436 kts | 331° |
| 2026-04-16 03:01 | 50.45006 | 11.83736 | 36196 ft | 436 kts | 331° |
| 2026-04-16 03:01 | 50.50243 | 11.79132 | 36205 ft | 430 kts | 323° |
| 2026-04-16 03:02 | 50.55359 | 11.74215 | 36204 ft | 431 kts | 323° |
| 2026-04-16 03:02 | 50.60466 | 11.69300 | 36209 ft | 430 kts | 323° |
| 2026-04-16 03:03 | 50.65571 | 11.64380 | 36213 ft | 430 kts | 323° |
| 2026-04-16 03:03 | 50.70679 | 11.59450 | 36212 ft | 430 kts | 323° |
| 2026-04-16 03:04 | 50.75763 | 11.54513 | 36202 ft | 429 kts | 322° |
| 2026-04-16 03:04 | 50.80848 | 11.49563 | 36193 ft | 429 kts | 323° |
| 2026-04-16 03:05 | 50.85936 | 11.44607 | 36194 ft | 429 kts | 323° |
| 2026-04-16 03:05 | 50.91022 | 11.39642 | 36193 ft | 429 kts | 323° |
| 2026-04-16 03:06 | 50.96136 | 11.34635 | 36196 ft | 429 kts | 322° |
| 2026-04-16 03:07 | 51.03753 | 11.27148 | 36196 ft | 430 kts | 322° |
| 2026-04-16 03:07 | 51.08837 | 11.22140 | 36199 ft | 430 kts | 322° |
| 2026-04-16 03:08 | 51.13909 | 11.17116 | 36196 ft | 429 kts | 322° |
| 2026-04-16 03:08 | 51.18982 | 11.12080 | 36192 ft | 430 kts | 322° |
| 2026-04-16 03:09 | 51.24058 | 11.07039 | 36193 ft | 430 kts | 322° |
| 2026-04-16 03:09 | 51.29138 | 11.01994 | 36186 ft | 430 kts | 322° |
| 2026-04-16 03:10 | 51.34215 | 10.96927 | 36180 ft | 430 kts | 322° |
| 2026-04-16 03:10 | 51.39286 | 10.91812 | 36180 ft | 430 kts | 321° |
| 2026-04-16 03:11 | 51.44234 | 10.86468 | 36176 ft | 429 kts | 320° |
| 2026-04-16 03:11 | 51.49134 | 10.80999 | 36179 ft | 429 kts | 319° |
| 2026-04-16 03:12 | 51.54047 | 10.75547 | 36175 ft | 430 kts | 320° |
| 2026-04-16 03:12 | 51.58990 | 10.70112 | 36177 ft | 431 kts | 320° |
| 2026-04-16 03:13 | 51.63970 | 10.64630 | 36179 ft | 431 kts | 320° |
| 2026-04-16 03:13 | 51.68917 | 10.59171 | 36169 ft | 431 kts | 320° |
| 2026-04-16 03:14 | 51.73861 | 10.53696 | 36168 ft | 431 kts | 320° |
| 2026-04-16 03:14 | 51.78797 | 10.48188 | 36170 ft | 431 kts | 320° |
| 2026-04-16 03:15 | 51.83731 | 10.42678 | 36141 ft | 432 kts | 320° |
| 2026-04-16 03:15 | 51.86215 | 10.39905 | 35584 ft | 435 kts | 320° |
| 2026-04-16 03:15 | 51.88719 | 10.37105 | 34712 ft | 440 kts | 319° |
| 2026-04-16 03:15 | 51.91241 | 10.34279 | 33845 ft | 443 kts | 319° |
| 2026-04-16 03:16 | 51.93759 | 10.31456 | 33068 ft | 432 kts | 319° |
| 2026-04-16 03:16 | 51.96184 | 10.28750 | 32584 ft | 419 kts | 319° |
| 2026-04-16 03:16 | 51.98578 | 10.26067 | 32012 ft | 417 kts | 319° |
| 2026-04-16 03:16 | 52.00948 | 10.23395 | 31459 ft | 414 kts | 319° |
| 2026-04-16 03:17 | 52.03302 | 10.20728 | 30919 ft | 411 kts | 319° |
| 2026-04-16 03:17 | 52.05646 | 10.18069 | 30384 ft | 409 kts | 319° |
| 2026-04-16 03:17 | 52.07968 | 10.15438 | 29788 ft | 406 kts | 319° |
| 2026-04-16 03:17 | 52.10281 | 10.12824 | 29261 ft | 402 kts | 319° |
| 2026-04-16 03:18 | 52.12561 | 10.10246 | 28736 ft | 397 kts | 319° |
| 2026-04-16 03:18 | 52.14822 | 10.07685 | 28214 ft | 393 kts | 319° |
| 2026-04-16 03:18 | 52.17056 | 10.05150 | 27724 ft | 389 kts | 319° |
| 2026-04-16 03:18 | 52.19265 | 10.02638 | 27228 ft | 385 kts | 319° |
| 2026-04-16 03:19 | 52.21447 | 10.00153 | 26744 ft | 381 kts | 319° |
| 2026-04-16 03:19 | 52.23606 | 9.97693 | 26277 ft | 378 kts | 319° |
| 2026-04-16 03:19 | 52.25752 | 9.95237 | 25824 ft | 374 kts | 319° |
| 2026-04-16 03:19 | 52.27897 | 9.92776 | 25371 ft | 370 kts | 319° |
| 2026-04-16 03:20 | 52.29988 | 9.90379 | 24935 ft | 367 kts | 319° |
| 2026-04-16 03:20 | 52.32068 | 9.87995 | 24502 ft | 363 kts | 320° |
| 2026-04-16 03:20 | 52.34129 | 9.85637 | 24062 ft | 361 kts | 320° |
| 2026-04-16 03:20 | 52.36181 | 9.83280 | 23611 ft | 358 kts | 320° |
| 2026-04-16 03:21 | 52.38213 | 9.80939 | 23137 ft | 355 kts | 320° |
| 2026-04-16 03:21 | 52.40221 | 9.78625 | 22702 ft | 351 kts | 320° |
| 2026-04-16 03:21 | 52.42211 | 9.76331 | 22269 ft | 348 kts | 320° |
| 2026-04-16 03:21 | 52.44182 | 9.74056 | 21826 ft | 346 kts | 320° |
| 2026-04-16 03:22 | 52.46137 | 9.71794 | 21404 ft | 343 kts | 320° |
| 2026-04-16 03:22 | 52.48085 | 9.69537 | 20947 ft | 341 kts | 320° |
| 2026-04-16 03:22 | 52.50018 | 9.67295 | 20514 ft | 340 kts | 320° |
| 2026-04-16 03:22 | 52.51944 | 9.65066 | 20073 ft | 338 kts | 320° |
| 2026-04-16 03:23 | 52.53865 | 9.62842 | 19626 ft | 337 kts | 320° |
| 2026-04-16 03:23 | 52.55777 | 9.60626 | 19196 ft | 336 kts | 320° |
| 2026-04-16 03:23 | 52.57681 | 9.58410 | 18761 ft | 335 kts | 320° |
| 2026-04-16 03:23 | 52.59581 | 9.56195 | 18310 ft | 334 kts | 321° |
| 2026-04-16 03:24 | 52.61469 | 9.53990 | 17851 ft | 332 kts | 321° |
| 2026-04-16 03:24 | 52.63350 | 9.51794 | 17421 ft | 330 kts | 321° |
| 2026-04-16 03:24 | 52.65215 | 9.49614 | 17005 ft | 328 kts | 321° |
| 2026-04-16 03:24 | 52.67066 | 9.47451 | 16584 ft | 326 kts | 321° |
| 2026-04-16 03:25 | 52.68909 | 9.45294 | 16163 ft | 324 kts | 321° |
| 2026-04-16 03:25 | 52.70739 | 9.43149 | 15759 ft | 323 kts | 321° |
| 2026-04-16 03:25 | 52.72565 | 9.41002 | 15352 ft | 321 kts | 321° |
| 2026-04-16 03:25 | 52.74380 | 9.38862 | 14942 ft | 320 kts | 321° |
| 2026-04-16 03:26 | 52.76190 | 9.36726 | 14538 ft | 319 kts | 321° |
| 2026-04-16 03:26 | 52.77997 | 9.34597 | 14121 ft | 319 kts | 321° |
| 2026-04-16 03:26 | 52.79824 | 9.32450 | 13675 ft | 318 kts | 321° |
| 2026-04-16 03:26 | 52.81583 | 9.30381 | 13254 ft | 316 kts | 321° |
| 2026-04-16 03:27 | 52.83371 | 9.28276 | 12841 ft | 314 kts | 321° |
| 2026-04-16 03:27 | 52.85137 | 9.26194 | 12429 ft | 312 kts | 321° |
| 2026-04-16 03:27 | 52.86897 | 9.24117 | 12008 ft | 309 kts | 321° |
| 2026-04-16 03:27 | 52.88480 | 9.21756 | 11596 ft | 304 kts | 308° |
| 2026-04-16 03:28 | 52.89641 | 9.18889 | 11173 ft | 299 kts | 295° |
| 2026-04-16 03:28 | 52.90356 | 9.15675 | 10749 ft | 296 kts | 283° |
| 2026-04-16 03:28 | 52.90874 | 9.12446 | 10357 ft | 282 kts | 284° |
| 2026-04-16 03:28 | 52.91375 | 9.09379 | 9932 ft | 271 kts | 284° |
| 2026-04-16 03:29 | 52.91700 | 9.07406 | 9779 ft | 267 kts | 284° |
| 2026-04-16 03:29 | 52.92189 | 9.04431 | 9641 ft | 267 kts | 284° |
| 2026-04-16 03:29 | 52.92676 | 9.01463 | 9506 ft | 267 kts | 284° |
| 2026-04-16 03:29 | 52.93164 | 8.98481 | 9032 ft | 269 kts | 284° |
| 2026-04-16 03:30 | 52.93650 | 8.95499 | 8557 ft | 265 kts | 284° |
| 2026-04-16 03:30 | 52.94126 | 8.92575 | 8054 ft | 263 kts | 284° |
| 2026-04-16 03:30 | 52.94598 | 8.89653 | 7541 ft | 260 kts | 284° |
| 2026-04-16 03:30 | 52.95062 | 8.86774 | 7077 ft | 255 kts | 283° |
| 2026-04-16 03:31 | 52.95502 | 8.84049 | 6888 ft | 235 kts | 284° |
| 2026-04-16 03:31 | 52.95913 | 8.81511 | 6725 ft | 224 kts | 283° |
| 2026-04-16 03:31 | 52.96292 | 8.78998 | 6598 ft | 224 kts | 278° |
| 2026-04-16 03:31 | 52.96373 | 8.76402 | 6476 ft | 223 kts | 270° |
| 2026-04-16 03:32 | 52.96374 | 8.73834 | 6295 ft | 222 kts | 270° |
| 2026-04-16 03:32 | 52.96377 | 8.71278 | 6033 ft | 221 kts | 270° |
| 2026-04-16 03:34 | 52.96530 | 8.54404 | 3984 ft | 203 kts | 285° |
| 2026-04-16 03:34 | 52.97151 | 8.52325 | 3811 ft | 202 kts | 304° |
| 2026-04-16 03:34 | 52.98179 | 8.50747 | 3628 ft | 202 kts | 324° |
| 2026-04-16 03:34 | 52.99479 | 8.49853 | 3344 ft | 209 kts | 344° |
| 2026-04-16 03:35 | 53.00935 | 8.49804 | 3159 ft | 208 kts | 7° |
| 2026-04-16 03:35 | 53.02275 | 8.50640 | 3098 ft | 204 kts | 28° |
| 2026-04-16 03:35 | 53.03318 | 8.52157 | 2965 ft | 198 kts | 49° |
| 2026-04-16 03:35 | 53.03963 | 8.54141 | 2774 ft | 193 kts | 71° |
| 2026-04-16 03:36 | 53.04149 | 8.56273 | 2561 ft | 181 kts | 88° |
| 2026-04-16 03:36 | 53.04198 | 8.58284 | 2327 ft | 167 kts | 88° |
| 2026-04-16 03:36 | 53.04246 | 8.60163 | 2104 ft | 160 kts | 88° |
| 2026-04-16 03:36 | 53.04291 | 8.61988 | 1892 ft | 157 kts | 88° |
| 2026-04-16 03:37 | 53.04335 | 8.63813 | 1676 ft | 155 kts | 88° |
| 2026-04-16 03:37 | 53.04378 | 8.65592 | 1465 ft | 154 kts | 89° |
| 2026-04-16 03:37 | 53.04421 | 8.67364 | 1259 ft | 153 kts | 89° |
| 2026-04-16 03:37 | 53.04463 | 8.69129 | 1048 ft | 151 kts | 89° |
| 2026-04-16 03:38 | 53.04500 | 8.70855 | 856 ft | 148 kts | 90° |
| 2026-04-16 03:38 | 53.04534 | 8.72540 | 675 ft | 143 kts | 89° |
| 2026-04-16 03:38 | 53.04580 | 8.74166 | 439 ft | 139 kts | 88° |
| 2026-04-16 03:38 | 53.04616 | 8.75740 | 273 ft | 134 kts | 89° |
| 2026-04-16 03:39 | 53.04653 | 8.77272 | 72 ft | 132 kts | 88° |
| 2026-04-16 03:39 | 53.04683 | 8.78630 | 20 ft | 83 kts | 87° |
| 2026-04-16 03:39 | 53.04697 | 8.79254 | 19 ft | 43 kts | 87° |
| 2026-04-16 03:39 | 53.04708 | 8.79632 | 19 ft | 26 kts | 88° |
| 2026-04-16 03:40 | 53.04712 | 8.79820 | 20 ft | 10 kts | 88° |
| 2026-04-16 03:40 | 53.04731 | 8.79926 | 21 ft | 9 kts | 53° |
| 2026-04-16 03:40 | 53.04782 | 8.79975 | 20 ft | 9 kts | 13° |
| 2026-04-16 03:40 | 53.04834 | 8.79959 | 19 ft | 5 kts | 333° |
| 2026-04-16 03:41 | 53.04836 | 8.79957 | 19 ft | 0 kts | 331° |
| 2026-04-16 03:42 | 53.04847 | 8.79946 | 19 ft | 4 kts | 325° |
| 2026-04-16 03:43 | 53.04869 | 8.79896 | 19 ft | 7 kts | 295° |
| 2026-04-16 03:43 | 53.04876 | 8.79797 | 19 ft | 10 kts | 268° |
| 2026-04-16 03:43 | 53.04873 | 8.79691 | 21 ft | 9 kts | 268° |
| 2026-04-16 03:43 | 53.04872 | 8.79597 | 19 ft | 8 kts | 268° |
| 2026-04-16 03:44 | 53.04869 | 8.79509 | 19 ft | 7 kts | 268° |
| 2026-04-16 03:44 | 53.04867 | 8.79431 | 19 ft | 6 kts | 268° |
| 2026-04-16 03:44 | 53.04866 | 8.79361 | 19 ft | 6 kts | 268° |
| 2026-04-16 03:44 | 53.04864 | 8.79282 | 19 ft | 10 kts | 268° |
| 2026-04-16 03:45 | 53.04862 | 8.79139 | 19 ft | 13 kts | 268° |
| 2026-04-16 03:45 | 53.04858 | 8.79010 | 19 ft | 10 kts | 267° |
| 2026-04-16 03:45 | 53.04865 | 8.78904 | 21 ft | 9 kts | 303° |
| 2026-04-16 03:45 | 53.04909 | 8.78839 | 19 ft | 10 kts | 319° |
| 2026-04-16 03:46 | 53.04969 | 8.78753 | 19 ft | 10 kts | 318° |
| 2026-04-16 03:46 | 53.05003 | 8.78658 | 19 ft | 9 kts | 292° |
| 2026-04-16 03:46 | 53.05032 | 8.78578 | 20 ft | 8 kts | 316° |
| 2026-04-16 03:46 | 53.05068 | 8.78524 | 19 ft | 7 kts | 319° |
| 2026-04-16 03:47 | 53.05100 | 8.78478 | 19 ft | 5 kts | 319° |
| 2026-04-16 03:47 | 53.05126 | 8.78456 | 19 ft | 4 kts | 3° |
| 2026-04-16 03:47 | 53.05143 | 8.78477 | 19 ft | 3 kts | 44° |
| 2026-04-16 03:47 | 53.05154 | 8.78497 | 19 ft | 2 kts | 49° |
| 2026-04-16 03:48 | 53.05161 | 8.78511 | 19 ft | 1 kts | 49° |
| 2026-04-16 03:48 | 53.05171 | 8.78531 | 19 ft | 2 kts | 49° |
| 2026-04-16 03:48 | 53.05172 | 8.78533 | 19 ft | 0 kts | 49° |